Search for airport 
image banner adimage banner adimage banner ad
image banner ad

KOXV - Knoxville Muni

Located in Knoxville, United States

ICAO - OXV, IATA -

Data provided by Airmate  

General information

Coordinates: N41°17'57" W93°6'49"
Elevation is 928 feet MSL.
Magnetic variation is 02° East
View others Airports in Iowa

Operational data

Special qualification required
Current time UTC:
Current local time:
Weather
METAR: KOXV 181815Z AUTO 30006KT 10SM FEW140 28/20 A2990 RMK AO2
View NOTAMs / SUP AIP / TFR affecting this airport [VIEW]
Communications frequencies: [VIEW]

Runways:

RWY identifierQFULength (ft)Width (ft)SurfaceLDA (ft)
15156°400075OTHER
33336°400075OTHER

Airport contact information

Address: Knoxville United States

Satellite view of KOXV